sensor_id;sensor_type;location;lat;lon;timestamp;temperature;humidity
26270;DHT22;15937;50.612;6.656;2023-09-12T00:01:52;20.80;99.90
26270;DHT22;15937;50.612;6.656;2023-09-12T00:05:54;20.80;99.90
26270;DHT22;15937;50.612;6.656;2023-09-12T00:09:56;20.70;99.90
26270;DHT22;15937;50.612;6.656;2023-09-12T00:13:58;20.80;99.90
26270;DHT22;15937;50.612;6.656;2023-09-12T00:18:03;20.80;99.90
26270;DHT22;15937;50.612;6.656;2023-09-12T00:22:05;20.80;99.90
26270;DHT22;15937;50.612;6.656;2023-09-12T00:26:07;20.70;99.90
26270;DHT22;15937;50.612;6.656;2023-09-12T00:30:09;20.70;99.90
26270;DHT22;15937;50.612;6.656;2023-09-12T00:34:15;20.70;99.90
26270;DHT22;15937;50.612;6.656;2023-09-12T00:38:17;20.80;99.90
26270;DHT22;15937;50.612;6.656;2023-09-12T00:42:19;20.80;99.90
26270;DHT22;15937;50.612;6.656;2023-09-12T00:46:22;20.70;99.90
26270;DHT22;15937;50.612;6.656;2023-09-12T00:50:24;20.80;99.90
26270;DHT22;15937;50.612;6.656;2023-09-12T00:54:26;20.90;99.90
26270;DHT22;15937;50.612;6.656;2023-09-12T00:58:28;20.70;99.90
26270;DHT22;15937;50.612;6.656;2023-09-12T01:02:30;20.60;99.90
26270;DHT22;15937;50.612;6.656;2023-09-12T01:06:32;20.70;99.90
26270;DHT22;15937;50.612;6.656;2023-09-12T01:10:35;20.60;99.90
26270;DHT22;15937;50.612;6.656;2023-09-12T01:14:37;20.50;99.90
26270;DHT22;15937;50.612;6.656;2023-09-12T01:18:39;20.60;99.90
26270;DHT22;15937;50.612;6.656;2023-09-12T01:31:16;20.20;99.90
26270;DHT22;15937;50.612;6.656;2023-09-12T01:35:19;20.30;99.90
26270;DHT22;15937;50.612;6.656;2023-09-12T01:39:20;20.20;99.90
26270;DHT22;15937;50.612;6.656;2023-09-12T01:43:23;20.00;99.90
26270;DHT22;15937;50.612;6.656;2023-09-12T01:47:25;19.90;99.90
26270;DHT22;15937;50.612;6.656;2023-09-12T01:51:27;19.90;99.90
26270;DHT22;15937;50.612;6.656;2023-09-12T01:55:29;19.90;99.90
26270;DHT22;15937;50.612;6.656;2023-09-12T01:59:31;19.80;99.90
26270;DHT22;15937;50.612;6.656;2023-09-12T02:03:33;19.70;99.90
26270;DHT22;15937;50.612;6.656;2023-09-12T02:07:36;19.60;99.90
26270;DHT22;15937;50.612;6.656;2023-09-12T02:11:38;19.40;99.90
26270;DHT22;15937;50.612;6.656;2023-09-12T02:15:40;19.40;99.90
26270;DHT22;15937;50.612;6.656;2023-09-12T02:19:42;19.40;99.90
26270;DHT22;15937;50.612;6.656;2023-09-12T02:23:43;19.30;99.90
26270;DHT22;15937;50.612;6.656;2023-09-12T02:27:45;19.50;99.90
26270;DHT22;15937;50.612;6.656;2023-09-12T02:31:47;19.60;99.90
26270;DHT22;15937;50.612;6.656;2023-09-12T02:35:48;19.50;99.90
26270;DHT22;15937;50.612;6.656;2023-09-12T02:39:50;19.40;99.90
26270;DHT22;15937;50.612;6.656;2023-09-12T02:43:53;19.40;99.90
26270;DHT22;15937;50.612;6.656;2023-09-12T02:47:55;19.30;99.90
26270;DHT22;15937;50.612;6.656;2023-09-12T02:51:57;19.50;99.90
26270;DHT22;15937;50.612;6.656;2023-09-12T02:55:59;19.50;99.90
26270;DHT22;15937;50.612;6.656;2023-09-12T03:00:00;19.50;99.90
26270;DHT22;15937;50.612;6.656;2023-09-12T03:04:02;19.50;99.90
26270;DHT22;15937;50.612;6.656;2023-09-12T03:08:04;19.50;99.90
26270;DHT22;15937;50.612;6.656;2023-09-12T03:12:06;19.30;99.90
26270;DHT22;15937;50.612;6.656;2023-09-12T03:16:11;19.30;99.90
26270;DHT22;15937;50.612;6.656;2023-09-12T03:20:13;19.20;99.90
26270;DHT22;15937;50.612;6.656;2023-09-12T03:24:15;19.20;99.90
26270;DHT22;15937;50.612;6.656;2023-09-12T03:28:36;19.30;99.90
26270;DHT22;15937;50.612;6.656;2023-09-12T03:32:38;19.20;99.90
26270;DHT22;15937;50.612;6.656;2023-09-12T03:36:39;19.30;99.90
26270;DHT22;15937;50.612;6.656;2023-09-12T03:40:44;19.40;99.90
26270;DHT22;15937;50.612;6.656;2023-09-12T03:44:54;19.40;99.90
26270;DHT22;15937;50.612;6.656;2023-09-12T03:49:00;19.40;99.90
26270;DHT22;15937;50.612;6.656;2023-09-12T03:53:02;19.40;99.90
26270;DHT22;15937;50.612;6.656;2023-09-12T03:57:05;19.30;99.90
26270;DHT22;15937;50.612;6.656;2023-09-12T04:01:07;19.20;99.90
26270;DHT22;15937;50.612;6.656;2023-09-12T04:05:09;19.30;99.90
26270;DHT22;15937;50.612;6.656;2023-09-12T04:09:11;19.40;99.90
26270;DHT22;15937;50.612;6.656;2023-09-12T04:13:13;19.50;99.90
26270;DHT22;15937;50.612;6.656;2023-09-12T04:17:15;19.30;99.90
26270;DHT22;15937;50.612;6.656;2023-09-12T04:21:17;19.40;99.90
26270;DHT22;15937;50.612;6.656;2023-09-12T04:25:18;19.20;99.90
26270;DHT22;15937;50.612;6.656;2023-09-12T04:29:21;18.90;99.90
26270;DHT22;15937;50.612;6.656;2023-09-12T04:33:23;19.00;99.90
26270;DHT22;15937;50.612;6.656;2023-09-12T04:37:25;19.10;99.90
26270;DHT22;15937;50.612;6.656;2023-09-12T04:41:27;19.20;99.90
26270;DHT22;15937;50.612;6.656;2023-09-12T04:45:28;19.20;99.90
26270;DHT22;15937;50.612;6.656;2023-09-12T04:49:30;18.80;99.90
26270;DHT22;15937;50.612;6.656;2023-09-12T04:53:32;18.90;99.90
26270;DHT22;15937;50.612;6.656;2023-09-12T04:57:36;19.00;99.90
26270;DHT22;15937;50.612;6.656;2023-09-12T05:01:41;19.00;99.90
26270;DHT22;15937;50.612;6.656;2023-09-12T05:05:45;18.50;99.90
26270;DHT22;15937;50.612;6.656;2023-09-12T05:09:46;18.60;99.90
26270;DHT22;15937;50.612;6.656;2023-09-12T05:13:48;18.70;99.90
26270;DHT22;15937;50.612;6.656;2023-09-12T05:17:53;18.70;99.90
26270;DHT22;15937;50.612;6.656;2023-09-12T05:21:55;18.80;99.90
26270;DHT22;15937;50.612;6.656;2023-09-12T05:25:57;18.70;99.90
26270;DHT22;15937;50.612;6.656;2023-09-12T05:29:59;18.60;99.90
26270;DHT22;15937;50.612;6.656;2023-09-12T05:34:00;18.70;99.90
26270;DHT22;15937;50.612;6.656;2023-09-12T05:38:02;18.70;99.90
26270;DHT22;15937;50.612;6.656;2023-09-12T05:42:04;18.80;99.90
26270;DHT22;15937;50.612;6.656;2023-09-12T05:46:07;18.90;99.90
26270;DHT22;15937;50.612;6.656;2023-09-12T05:50:09;18.80;99.90
26270;DHT22;15937;50.612;6.656;2023-09-12T05:54:10;18.90;99.90
26270;DHT22;15937;50.612;6.656;2023-09-12T05:58:15;19.10;99.90
26270;DHT22;15937;50.612;6.656;2023-09-12T06:02:16;19.20;99.90
26270;DHT22;15937;50.612;6.656;2023-09-12T06:06:19;19.30;99.90
26270;DHT22;15937;50.612;6.656;2023-09-12T06:10:21;19.30;99.90
26270;DHT22;15937;50.612;6.656;2023-09-12T06:14:23;19.40;99.90
26270;DHT22;15937;50.612;6.656;2023-09-12T06:18:24;19.50;99.90
26270;DHT22;15937;50.612;6.656;2023-09-12T06:22:28;19.50;99.90
26270;DHT22;15937;50.612;6.656;2023-09-12T06:26:33;19.60;99.90
26270;DHT22;15937;50.612;6.656;2023-09-12T06:30:35;19.70;99.90
26270;DHT22;15937;50.612;6.656;2023-09-12T06:34:36;19.80;99.90
26270;DHT22;15937;50.612;6.656;2023-09-12T06:38:38;19.90;99.90
26270;DHT22;15937;50.612;6.656;2023-09-12T06:42:41;19.90;99.90
26270;DHT22;15937;50.612;6.656;2023-09-12T06:46:43;20.00;99.90
26270;DHT22;15937;50.612;6.656;2023-09-12T06:50:44;20.00;99.90
26270;DHT22;15937;50.612;6.656;2023-09-12T06:54:51;20.10;99.90
26270;DHT22;15937;50.612;6.656;2023-09-12T06:58:53;20.20;99.90
26270;DHT22;15937;50.612;6.656;2023-09-12T07:02:56;20.10;99.90
26270;DHT22;15937;50.612;6.656;2023-09-12T07:06:58;20.30;99.90
26270;DHT22;15937;50.612;6.656;2023-09-12T07:10:59;20.30;99.90
26270;DHT22;15937;50.612;6.656;2023-09-12T07:15:07;20.50;99.90
26270;DHT22;15937;50.612;6.656;2023-09-12T07:19:08;20.60;99.90
26270;DHT22;15937;50.612;6.656;2023-09-12T07:23:11;20.70;99.90
26270;DHT22;15937;50.612;6.656;2023-09-12T07:27:13;20.80;99.90
26270;DHT22;15937;50.612;6.656;2023-09-12T07:31:14;20.70;99.90
26270;DHT22;15937;50.612;6.656;2023-09-12T07:35:16;20.70;99.90
26270;DHT22;15937;50.612;6.656;2023-09-12T07:39:18;21.10;99.90
26270;DHT22;15937;50.612;6.656;2023-09-12T07:43:20;21.20;99.90
26270;DHT22;15937;50.612;6.656;2023-09-12T07:47:22;21.20;99.90
26270;DHT22;15937;50.612;6.656;2023-09-12T07:51:24;21.40;99.90
26270;DHT22;15937;50.612;6.656;2023-09-12T07:55:26;21.10;99.90
26270;DHT22;15937;50.612;6.656;2023-09-12T07:59:33;20.80;99.90
26270;DHT22;15937;50.612;6.656;2023-09-12T08:03:34;20.90;99.90
26270;DHT22;15937;50.612;6.656;2023-09-12T08:07:36;20.90;99.90
26270;DHT22;15937;50.612;6.656;2023-09-12T08:11:39;21.20;99.90
26270;DHT22;15937;50.612;6.656;2023-09-12T08:15:40;21.40;99.90
26270;DHT22;15937;50.612;6.656;2023-09-12T08:19:42;21.50;99.90
26270;DHT22;15937;50.612;6.656;2023-09-12T08:23:44;21.70;99.90
26270;DHT22;15937;50.612;6.656;2023-09-12T08:27:46;21.80;99.90
26270;DHT22;15937;50.612;6.656;2023-09-12T08:31:48;22.10;99.90
26270;DHT22;15937;50.612;6.656;2023-09-12T08:35:49;22.00;99.90
26270;DHT22;15937;50.612;6.656;2023-09-12T08:39:52;21.80;99.90
26270;DHT22;15937;50.612;6.656;2023-09-12T08:43:59;22.20;99.90
26270;DHT22;15937;50.612;6.656;2023-09-12T08:48:02;22.00;99.90
26270;DHT22;15937;50.612;6.656;2023-09-12T08:52:05;22.20;99.90
26270;DHT22;15937;50.612;6.656;2023-09-12T08:56:07;21.90;99.90
26270;DHT22;15937;50.612;6.656;2023-09-12T09:00:10;22.00;99.90
26270;DHT22;15937;50.612;6.656;2023-09-12T09:04:15;22.10;99.90
26270;DHT22;15937;50.612;6.656;2023-09-12T09:08:17;22.20;99.90
26270;DHT22;15937;50.612;6.656;2023-09-12T09:12:20;21.90;99.90
26270;DHT22;15937;50.612;6.656;2023-09-12T09:16:21;22.20;99.90
26270;DHT22;15937;50.612;6.656;2023-09-12T09:20:33;22.50;99.90
26270;DHT22;15937;50.612;6.656;2023-09-12T09:24:38;22.50;99.90
26270;DHT22;15937;50.612;6.656;2023-09-12T09:28:40;22.20;99.90
26270;DHT22;15937;50.612;6.656;2023-09-12T09:32:42;22.40;99.90
26270;DHT22;15937;50.612;6.656;2023-09-12T09:36:46;22.20;99.90
26270;DHT22;15937;50.612;6.656;2023-09-12T09:40:48;22.20;99.90
26270;DHT22;15937;50.612;6.656;2023-09-12T09:44:50;22.70;99.90
26270;DHT22;15937;50.612;6.656;2023-09-12T09:48:54;22.30;99.90
26270;DHT22;15937;50.612;6.656;2023-09-12T09:52:55;22.50;99.90
26270;DHT22;15937;50.612;6.656;2023-09-12T09:56:58;22.40;99.90
26270;DHT22;15937;50.612;6.656;2023-09-12T10:01:01;22.50;99.90
26270;DHT22;15937;50.612;6.656;2023-09-12T10:05:04;22.60;99.90
26270;DHT22;15937;50.612;6.656;2023-09-12T10:09:07;22.90;99.90
26270;DHT22;15937;50.612;6.656;2023-09-12T10:13:10;23.10;99.90
26270;DHT22;15937;50.612;6.656;2023-09-12T10:17:12;23.50;99.90
26270;DHT22;15937;50.612;6.656;2023-09-12T10:21:15;23.80;99.90
26270;DHT22;15937;50.612;6.656;2023-09-12T10:25:17;23.40;99.90
26270;DHT22;15937;50.612;6.656;2023-09-12T10:29:19;23.50;99.90
26270;DHT22;15937;50.612;6.656;2023-09-12T10:33:21;23.60;99.90
26270;DHT22;15937;50.612;6.656;2023-09-12T10:37:23;23.60;99.90
26270;DHT22;15937;50.612;6.656;2023-09-12T10:41:26;23.90;99.90
26270;DHT22;15937;50.612;6.656;2023-09-12T10:45:29;23.70;99.90
26270;DHT22;15937;50.612;6.656;2023-09-12T10:49:31;23.70;99.90
26270;DHT22;15937;50.612;6.656;2023-09-12T10:53:32;23.90;99.90
26270;DHT22;15937;50.612;6.656;2023-09-12T10:57:53;24.40;99.90
26270;DHT22;15937;50.612;6.656;2023-09-12T11:06:20;24.30;99.90
26270;DHT22;15937;50.612;6.656;2023-09-12T11:10:23;24.20;99.90
26270;DHT22;15937;50.612;6.656;2023-09-12T11:14:25;24.10;99.90
26270;DHT22;15937;50.612;6.656;2023-09-12T11:18:27;24.10;99.90
26270;DHT22;15937;50.612;6.656;2023-09-12T11:22:30;24.20;99.90
26270;DHT22;15937;50.612;6.656;2023-09-12T11:26:33;24.00;99.90
26270;DHT22;15937;50.612;6.656;2023-09-12T11:30:34;24.10;99.90
26270;DHT22;15937;50.612;6.656;2023-09-12T11:34:37;24.10;99.90
26270;DHT22;15937;50.612;6.656;2023-09-12T11:38:40;24.20;99.90
26270;DHT22;15937;50.612;6.656;2023-09-12T11:42:42;24.00;99.90
26270;DHT22;15937;50.612;6.656;2023-09-12T11:46:44;24.00;99.90
26270;DHT22;15937;50.612;6.656;2023-09-12T11:50:49;24.40;99.90
26270;DHT22;15937;50.612;6.656;2023-09-12T11:54:51;24.10;99.90
26270;DHT22;15937;50.612;6.656;2023-09-12T11:58:53;24.30;99.90
26270;DHT22;15937;50.612;6.656;2023-09-12T12:02:56;24.40;99.90
26270;DHT22;15937;50.612;6.656;2023-09-12T12:06:59;24.40;99.90
26270;DHT22;15937;50.612;6.656;2023-09-12T12:11:01;24.30;99.90
26270;DHT22;15937;50.612;6.656;2023-09-12T12:15:02;24.40;99.90
26270;DHT22;15937;50.612;6.656;2023-09-12T12:19:04;24.30;99.90
26270;DHT22;15937;50.612;6.656;2023-09-12T12:23:06;24.60;99.90
26270;DHT22;15937;50.612;6.656;2023-09-12T12:27:08;24.80;99.90
26270;DHT22;15937;50.612;6.656;2023-09-12T12:31:11;24.40;99.90
26270;DHT22;15937;50.612;6.656;2023-09-12T12:35:17;24.70;99.90
26270;DHT22;15937;50.612;6.656;2023-09-12T12:39:42;24.20;99.90
26270;DHT22;15937;50.612;6.656;2023-09-12T12:43:43;24.40;99.90
26270;DHT22;15937;50.612;6.656;2023-09-12T12:47:45;24.30;99.90
26270;DHT22;15937;50.612;6.656;2023-09-12T12:51:47;24.40;99.90
26270;DHT22;15937;50.612;6.656;2023-09-12T12:55:49;24.20;99.90
26270;DHT22;15937;50.612;6.656;2023-09-12T12:59:51;24.30;99.90
26270;DHT22;15937;50.612;6.656;2023-09-12T13:03:53;24.40;99.90
26270;DHT22;15937;50.612;6.656;2023-09-12T13:07:56;24.00;99.90
26270;DHT22;15937;50.612;6.656;2023-09-12T13:11:58;24.20;99.90
26270;DHT22;15937;50.612;6.656;2023-09-12T13:16:00;24.10;99.90
26270;DHT22;15937;50.612;6.656;2023-09-12T13:20:02;23.90;99.90
26270;DHT22;15937;50.612;6.656;2023-09-12T13:24:04;23.80;99.90
26270;DHT22;15937;50.612;6.656;2023-09-12T13:28:06;23.70;99.90
26270;DHT22;15937;50.612;6.656;2023-09-12T13:32:08;23.70;99.90
26270;DHT22;15937;50.612;6.656;2023-09-12T13:36:11;23.70;99.90
26270;DHT22;15937;50.612;6.656;2023-09-12T13:40:13;23.80;99.90
26270;DHT22;15937;50.612;6.656;2023-09-12T13:44:14;23.50;99.90
26270;DHT22;15937;50.612;6.656;2023-09-12T13:48:16;23.50;99.90
26270;DHT22;15937;50.612;6.656;2023-09-12T13:52:19;23.50;99.90
26270;DHT22;15937;50.612;6.656;2023-09-12T13:56:21;23.40;99.90
26270;DHT22;15937;50.612;6.656;2023-09-12T14:00:22;23.30;99.90
26270;DHT22;15937;50.612;6.656;2023-09-12T14:04:36;23.30;99.90
26270;DHT22;15937;50.612;6.656;2023-09-12T14:08:41;23.30;99.90
26270;DHT22;15937;50.612;6.656;2023-09-12T14:12:43;23.40;99.90
26270;DHT22;15937;50.612;6.656;2023-09-12T14:16:48;23.50;99.90
26270;DHT22;15937;50.612;6.656;2023-09-12T14:20:50;23.70;99.90
26270;DHT22;15937;50.612;6.656;2023-09-12T14:24:54;24.10;99.90
26270;DHT22;15937;50.612;6.656;2023-09-12T14:28:56;24.00;99.90
26270;DHT22;15937;50.612;6.656;2023-09-12T14:32:58;24.30;99.90
26270;DHT22;15937;50.612;6.656;2023-09-12T14:37:00;24.30;99.90
26270;DHT22;15937;50.612;6.656;2023-09-12T14:41:02;23.80;99.90
26270;DHT22;15937;50.612;6.656;2023-09-12T14:45:04;23.80;99.90
26270;DHT22;15937;50.612;6.656;2023-09-12T14:49:06;23.80;99.90
26270;DHT22;15937;50.612;6.656;2023-09-12T14:53:08;23.80;99.90
26270;DHT22;15937;50.612;6.656;2023-09-12T14:57:10;23.90;99.90
26270;DHT22;15937;50.612;6.656;2023-09-12T15:01:11;23.90;99.90
26270;DHT22;15937;50.612;6.656;2023-09-12T15:05:13;23.80;99.90
26270;DHT22;15937;50.612;6.656;2023-09-12T15:09:15;23.70;99.90
26270;DHT22;15937;50.612;6.656;2023-09-12T15:13:17;23.90;99.90
26270;DHT22;15937;50.612;6.656;2023-09-12T15:17:19;23.80;99.90
26270;DHT22;15937;50.612;6.656;2023-09-12T15:21:21;23.80;99.90
26270;DHT22;15937;50.612;6.656;2023-09-12T15:25:22;23.70;99.90
26270;DHT22;15937;50.612;6.656;2023-09-12T15:29:24;23.80;99.90
26270;DHT22;15937;50.612;6.656;2023-09-12T15:33:26;23.90;99.90
26270;DHT22;15937;50.612;6.656;2023-09-12T15:37:28;23.80;99.90
26270;DHT22;15937;50.612;6.656;2023-09-12T15:41:30;24.00;99.90
26270;DHT22;15937;50.612;6.656;2023-09-12T15:45:31;23.80;99.90
26270;DHT22;15937;50.612;6.656;2023-09-12T15:49:51;23.70;99.90
26270;DHT22;15937;50.612;6.656;2023-09-12T15:53:53;23.80;99.90
26270;DHT22;15937;50.612;6.656;2023-09-12T15:57:54;23.70;99.90
26270;DHT22;15937;50.612;6.656;2023-09-12T16:01:56;23.80;99.90
26270;DHT22;15937;50.612;6.656;2023-09-12T16:05:58;23.70;99.90
26270;DHT22;15937;50.612;6.656;2023-09-12T16:10:00;23.50;99.90
26270;DHT22;15937;50.612;6.656;2023-09-12T16:14:03;23.70;99.90
26270;DHT22;15937;50.612;6.656;2023-09-12T16:18:05;23.60;99.90
26270;DHT22;15937;50.612;6.656;2023-09-12T16:22:06;23.50;99.90
26270;DHT22;15937;50.612;6.656;2023-09-12T16:26:09;23.50;99.90
26270;DHT22;15937;50.612;6.656;2023-09-12T16:30:11;23.40;99.90
26270;DHT22;15937;50.612;6.656;2023-09-12T16:34:13;23.40;99.90
26270;DHT22;15937;50.612;6.656;2023-09-12T16:38:15;23.40;99.90
26270;DHT22;15937;50.612;6.656;2023-09-12T16:42:17;23.20;99.90
26270;DHT22;15937;50.612;6.656;2023-09-12T16:46:18;23.20;99.90
26270;DHT22;15937;50.612;6.656;2023-09-12T16:50:20;23.20;99.90
26270;DHT22;15937;50.612;6.656;2023-09-12T16:54:23;23.20;99.90
26270;DHT22;15937;50.612;6.656;2023-09-12T16:58:25;23.10;99.90
26270;DHT22;15937;50.612;6.656;2023-09-12T17:02:31;22.90;99.90
26270;DHT22;15937;50.612;6.656;2023-09-12T17:06:36;22.90;99.90
26270;DHT22;15937;50.612;6.656;2023-09-12T17:10:38;22.70;99.90
26270;DHT22;15937;50.612;6.656;2023-09-12T17:14:40;22.70;99.90
26270;DHT22;15937;50.612;6.656;2023-09-12T17:18:42;22.60;99.90
26270;DHT22;15937;50.612;6.656;2023-09-12T17:22:43;22.30;99.90
26270;DHT22;15937;50.612;6.656;2023-09-12T17:26:45;21.90;99.90
26270;DHT22;15937;50.612;6.656;2023-09-12T17:30:47;21.60;99.90
26270;DHT22;15937;50.612;6.656;2023-09-12T17:34:49;21.50;99.90
26270;DHT22;15937;50.612;6.656;2023-09-12T17:38:53;21.40;99.90
26270;DHT22;15937;50.612;6.656;2023-09-12T17:42:57;21.50;99.90
26270;DHT22;15937;50.612;6.656;2023-09-12T17:46:59;21.60;99.90
26270;DHT22;15937;50.612;6.656;2023-09-12T17:51:01;21.40;99.90
26270;DHT22;15937;50.612;6.656;2023-09-12T17:55:02;21.30;99.90
26270;DHT22;15937;50.612;6.656;2023-09-12T17:59:04;21.30;99.90
26270;DHT22;15937;50.612;6.656;2023-09-12T18:03:08;21.00;99.90
26270;DHT22;15937;50.612;6.656;2023-09-12T18:07:10;21.10;99.90
26270;DHT22;15937;50.612;6.656;2023-09-12T18:11:13;20.90;99.90
26270;DHT22;15937;50.612;6.656;2023-09-12T18:15:14;20.40;99.90
26270;DHT22;15937;50.612;6.656;2023-09-12T18:19:16;19.80;99.90
26270;DHT22;15937;50.612;6.656;2023-09-12T18:23:18;19.40;99.90
26270;DHT22;15937;50.612;6.656;2023-09-12T18:27:20;19.00;99.90
26270;DHT22;15937;50.612;6.656;2023-09-12T18:31:22;18.80;99.90
26270;DHT22;15937;50.612;6.656;2023-09-12T18:35:24;18.80;99.90
26270;DHT22;15937;50.612;6.656;2023-09-12T18:39:25;18.80;99.90
26270;DHT22;15937;50.612;6.656;2023-09-12T18:43:27;18.80;99.90
26270;DHT22;15937;50.612;6.656;2023-09-12T18:47:29;18.30;99.90
26270;DHT22;15937;50.612;6.656;2023-09-12T18:51:33;18.70;99.90
26270;DHT22;15937;50.612;6.656;2023-09-12T18:55:34;18.60;99.90
26270;DHT22;15937;50.612;6.656;2023-09-12T18:59:37;18.60;99.90
26270;DHT22;15937;50.612;6.656;2023-09-12T19:03:39;18.40;99.90
26270;DHT22;15937;50.612;6.656;2023-09-12T19:07:41;18.70;99.90
26270;DHT22;15937;50.612;6.656;2023-09-12T19:11:43;18.90;99.90
26270;DHT22;15937;50.612;6.656;2023-09-12T19:15:45;18.90;99.90
26270;DHT22;15937;50.612;6.656;2023-09-12T19:19:47;18.80;99.90
26270;DHT22;15937;50.612;6.656;2023-09-12T19:23:49;18.80;99.90
26270;DHT22;15937;50.612;6.656;2023-09-12T19:27:51;18.70;99.90
26270;DHT22;15937;50.612;6.656;2023-09-12T19:31:53;18.80;99.90
26270;DHT22;15937;50.612;6.656;2023-09-12T19:35:54;18.80;99.90
26270;DHT22;15937;50.612;6.656;2023-09-12T19:39:56;18.80;99.90
26270;DHT22;15937;50.612;6.656;2023-09-12T19:43:58;18.80;99.90
26270;DHT22;15937;50.612;6.656;2023-09-12T19:48:00;18.90;99.90
26270;DHT22;15937;50.612;6.656;2023-09-12T19:52:02;18.70;99.90
26270;DHT22;15937;50.612;6.656;2023-09-12T19:56:04;18.80;99.90
26270;DHT22;15937;50.612;6.656;2023-09-12T20:00:06;18.70;99.90
26270;DHT22;15937;50.612;6.656;2023-09-12T20:04:08;18.50;99.90
26270;DHT22;15937;50.612;6.656;2023-09-12T20:08:10;18.40;99.90
26270;DHT22;15937;50.612;6.656;2023-09-12T20:12:15;18.40;99.90
26270;DHT22;15937;50.612;6.656;2023-09-12T20:16:16;18.60;99.90
26270;DHT22;15937;50.612;6.656;2023-09-12T20:20:20;18.80;99.90
26270;DHT22;15937;50.612;6.656;2023-09-12T20:24:23;18.60;99.90
26270;DHT22;15937;50.612;6.656;2023-09-12T20:28:25;18.60;99.90
26270;DHT22;15937;50.612;6.656;2023-09-12T20:32:27;18.50;99.90
26270;DHT22;15937;50.612;6.656;2023-09-12T20:36:41;18.60;99.90
26270;DHT22;15937;50.612;6.656;2023-09-12T20:40:42;18.40;99.90
26270;DHT22;15937;50.612;6.656;2023-09-12T20:44:46;18.40;99.90
26270;DHT22;15937;50.612;6.656;2023-09-12T20:48:49;18.50;99.90
26270;DHT22;15937;50.612;6.656;2023-09-12T20:52:51;18.50;99.90
26270;DHT22;15937;50.612;6.656;2023-09-12T20:56:53;18.40;99.90
26270;DHT22;15937;50.612;6.656;2023-09-12T21:00:55;18.50;99.90
26270;DHT22;15937;50.612;6.656;2023-09-12T21:04:57;18.50;99.90
26270;DHT22;15937;50.612;6.656;2023-09-12T21:08:58;18.50;99.90
26270;DHT22;15937;50.612;6.656;2023-09-12T21:13:00;18.40;99.90
26270;DHT22;15937;50.612;6.656;2023-09-12T21:17:04;18.40;99.90
26270;DHT22;15937;50.612;6.656;2023-09-12T21:21:05;18.50;99.90
26270;DHT22;15937;50.612;6.656;2023-09-12T21:25:07;18.50;99.90
26270;DHT22;15937;50.612;6.656;2023-09-12T21:29:09;18.40;99.90
26270;DHT22;15937;50.612;6.656;2023-09-12T21:33:11;18.40;99.90
26270;DHT22;15937;50.612;6.656;2023-09-12T21:37:13;18.40;99.90
26270;DHT22;15937;50.612;6.656;2023-09-12T21:41:15;18.40;99.90
26270;DHT22;15937;50.612;6.656;2023-09-12T21:45:16;18.30;99.90
26270;DHT22;15937;50.612;6.656;2023-09-12T21:49:18;18.30;99.90
26270;DHT22;15937;50.612;6.656;2023-09-12T21:53:20;18.40;99.90
26270;DHT22;15937;50.612;6.656;2023-09-12T21:57:21;18.40;99.90
26270;DHT22;15937;50.612;6.656;2023-09-12T22:01:25;18.30;99.90
26270;DHT22;15937;50.612;6.656;2023-09-12T22:05:27;18.40;99.90
26270;DHT22;15937;50.612;6.656;2023-09-12T22:09:28;18.30;99.90
26270;DHT22;15937;50.612;6.656;2023-09-12T22:13:31;18.30;99.90
26270;DHT22;15937;50.612;6.656;2023-09-12T22:17:33;18.40;99.90
26270;DHT22;15937;50.612;6.656;2023-09-12T22:21:34;18.30;99.90
26270;DHT22;15937;50.612;6.656;2023-09-12T22:25:36;18.30;99.90
26270;DHT22;15937;50.612;6.656;2023-09-12T22:29:38;18.20;99.90
26270;DHT22;15937;50.612;6.656;2023-09-12T22:33:40;18.20;99.90
26270;DHT22;15937;50.612;6.656;2023-09-12T22:37:42;18.20;99.90
26270;DHT22;15937;50.612;6.656;2023-09-12T22:41:44;18.30;99.90
26270;DHT22;15937;50.612;6.656;2023-09-12T22:45:46;18.20;99.90
26270;DHT22;15937;50.612;6.656;2023-09-12T22:49:49;18.30;99.90
26270;DHT22;15937;50.612;6.656;2023-09-12T22:53:51;18.30;99.90
26270;DHT22;15937;50.612;6.656;2023-09-12T22:57:53;18.20;99.90
26270;DHT22;15937;50.612;6.656;2023-09-12T23:01:55;18.20;99.90
26270;DHT22;15937;50.612;6.656;2023-09-12T23:05:59;18.30;99.90
26270;DHT22;15937;50.612;6.656;2023-09-12T23:10:00;18.30;99.90
26270;DHT22;15937;50.612;6.656;2023-09-12T23:14:02;18.30;99.90
26270;DHT22;15937;50.612;6.656;2023-09-12T23:18:04;18.20;99.90
26270;DHT22;15937;50.612;6.656;2023-09-12T23:22:06;18.20;99.90
26270;DHT22;15937;50.612;6.656;2023-09-12T23:26:08;18.10;99.90
26270;DHT22;15937;50.612;6.656;2023-09-12T23:30:10;18.10;99.90
26270;DHT22;15937;50.612;6.656;2023-09-12T23:34:12;18.00;99.90
26270;DHT22;15937;50.612;6.656;2023-09-12T23:38:14;18.10;99.90
26270;DHT22;15937;50.612;6.656;2023-09-12T23:42:17;18.00;99.90
26270;DHT22;15937;50.612;6.656;2023-09-12T23:46:19;18.00;99.90
26270;DHT22;15937;50.612;6.656;2023-09-12T23:50:21;18.00;99.90
26270;DHT22;15937;50.612;6.656;2023-09-12T23:54:23;18.00;99.90
26270;DHT22;15937;50.612;6.656;2023-09-12T23:58:24;18.00;99.90
